sensor_id;sensor_type;location;lat;lon;timestamp;temperature;humidity
10828;DHT22;5467;59.334;13.512;2022-08-01T00:00:19;18.00;99.90
10828;DHT22;5467;59.334;13.512;2022-08-01T00:02:46;18.10;99.90
10828;DHT22;5467;59.334;13.512;2022-08-01T00:05:13;18.30;99.90
10828;DHT22;5467;59.334;13.512;2022-08-01T00:07:41;18.40;99.90
10828;DHT22;5467;59.334;13.512;2022-08-01T00:10:10;18.40;99.90
10828;DHT22;5467;59.334;13.512;2022-08-01T00:12:37;18.50;99.90
10828;DHT22;5467;59.334;13.512;2022-08-01T00:15:06;18.50;99.90
10828;DHT22;5467;59.334;13.512;2022-08-01T00:17:33;18.60;99.90
10828;DHT22;5467;59.334;13.512;2022-08-01T00:20:00;18.60;99.90
10828;DHT22;5467;59.334;13.512;2022-08-01T00:22:28;18.70;99.90
10828;DHT22;5467;59.334;13.512;2022-08-01T00:24:56;18.70;99.90
10828;DHT22;5467;59.334;13.512;2022-08-01T00:27:23;18.60;99.90
10828;DHT22;5467;59.334;13.512;2022-08-01T00:29:50;18.60;99.90
10828;DHT22;5467;59.334;13.512;2022-08-01T00:32:17;18.60;99.90
10828;DHT22;5467;59.334;13.512;2022-08-01T00:34:44;18.60;99.90
10828;DHT22;5467;59.334;13.512;2022-08-01T00:37:11;18.60;99.90
10828;DHT22;5467;59.334;13.512;2022-08-01T00:39:38;18.60;99.90
10828;DHT22;5467;59.334;13.512;2022-08-01T00:42:07;18.50;99.90
10828;DHT22;5467;59.334;13.512;2022-08-01T00:44:35;18.60;99.90
10828;DHT22;5467;59.334;13.512;2022-08-01T00:47:03;18.60;99.90
10828;DHT22;5467;59.334;13.512;2022-08-01T00:49:30;18.70;99.90
10828;DHT22;5467;59.334;13.512;2022-08-01T00:51:57;18.60;99.90
10828;DHT22;5467;59.334;13.512;2022-08-01T00:54:26;18.70;99.90
10828;DHT22;5467;59.334;13.512;2022-08-01T00:56:54;18.70;99.90
10828;DHT22;5467;59.334;13.512;2022-08-01T00:59:23;18.70;99.90
10828;DHT22;5467;59.334;13.512;2022-08-01T01:01:50;18.70;99.90
10828;DHT22;5467;59.334;13.512;2022-08-01T01:04:17;18.60;99.90
10828;DHT22;5467;59.334;13.512;2022-08-01T01:06:48;18.60;99.90
10828;DHT22;5467;59.334;13.512;2022-08-01T01:09:26;18.50;99.90
10828;DHT22;5467;59.334;13.512;2022-08-01T01:12:02;18.50;99.90
10828;DHT22;5467;59.334;13.512;2022-08-01T01:14:38;18.50;99.90
10828;DHT22;5467;59.334;13.512;2022-08-01T01:17:12;18.60;99.90
10828;DHT22;5467;59.334;13.512;2022-08-01T01:19:45;18.50;99.90
10828;DHT22;5467;59.334;13.512;2022-08-01T01:22:40;18.40;99.90
10828;DHT22;5467;59.334;13.512;2022-08-01T01:28:10;18.40;99.90
10828;DHT22;5467;59.334;13.512;2022-08-01T01:30:44;18.50;99.90
10828;DHT22;5467;59.334;13.512;2022-08-01T01:33:13;18.40;99.90
10828;DHT22;5467;59.334;13.512;2022-08-01T01:35:45;18.30;99.90
10828;DHT22;5467;59.334;13.512;2022-08-01T01:38:18;18.20;99.90
10828;DHT22;5467;59.334;13.512;2022-08-01T01:40:47;18.00;99.90
10828;DHT22;5467;59.334;13.512;2022-08-01T01:43:15;18.10;99.90
10828;DHT22;5467;59.334;13.512;2022-08-01T01:45:45;18.10;99.90
10828;DHT22;5467;59.334;13.512;2022-08-01T01:48:15;17.70;99.90
10828;DHT22;5467;59.334;13.512;2022-08-01T01:50:46;17.40;99.90
10828;DHT22;5467;59.334;13.512;2022-08-01T01:53:15;17.30;99.90
10828;DHT22;5467;59.334;13.512;2022-08-01T01:55:46;17.30;99.90
10828;DHT22;5467;59.334;13.512;2022-08-01T01:58:15;17.20;99.90
10828;DHT22;5467;59.334;13.512;2022-08-01T02:00:45;17.00;99.90
10828;DHT22;5467;59.334;13.512;2022-08-01T02:03:13;16.90;99.90
10828;DHT22;5467;59.334;13.512;2022-08-01T02:05:41;16.80;99.90
10828;DHT22;5467;59.334;13.512;2022-08-01T02:08:09;16.70;99.90
10828;DHT22;5467;59.334;13.512;2022-08-01T02:10:39;16.70;99.90
10828;DHT22;5467;59.334;13.512;2022-08-01T02:13:07;16.60;99.90
10828;DHT22;5467;59.334;13.512;2022-08-01T02:15:36;16.50;99.90
10828;DHT22;5467;59.334;13.512;2022-08-01T02:18:06;16.30;99.90
10828;DHT22;5467;59.334;13.512;2022-08-01T02:20:34;16.10;99.90
10828;DHT22;5467;59.334;13.512;2022-08-01T02:23:07;16.00;99.90
10828;DHT22;5467;59.334;13.512;2022-08-01T02:25:38;15.80;99.90
10828;DHT22;5467;59.334;13.512;2022-08-01T02:28:08;15.70;99.90
10828;DHT22;5467;59.334;13.512;2022-08-01T02:30:39;15.60;99.90
10828;DHT22;5467;59.334;13.512;2022-08-01T02:33:14;15.40;99.90
10828;DHT22;5467;59.334;13.512;2022-08-01T02:35:45;15.30;99.90
10828;DHT22;5467;59.334;13.512;2022-08-01T02:38:14;15.20;99.90
10828;DHT22;5467;59.334;13.512;2022-08-01T02:40:43;15.20;99.90
10828;DHT22;5467;59.334;13.512;2022-08-01T02:43:12;15.20;99.90
10828;DHT22;5467;59.334;13.512;2022-08-01T02:45:45;15.20;99.90
10828;DHT22;5467;59.334;13.512;2022-08-01T02:48:17;15.20;99.90
10828;DHT22;5467;59.334;13.512;2022-08-01T02:50:47;15.10;99.90
10828;DHT22;5467;59.334;13.512;2022-08-01T02:53:18;15.10;99.90
10828;DHT22;5467;59.334;13.512;2022-08-01T02:55:46;15.10;99.90
10828;DHT22;5467;59.334;13.512;2022-08-01T02:58:15;15.10;99.90
10828;DHT22;5467;59.334;13.512;2022-08-01T03:00:43;15.10;99.90
10828;DHT22;5467;59.334;13.512;2022-08-01T03:03:12;15.00;99.90
10828;DHT22;5467;59.334;13.512;2022-08-01T03:05:43;15.00;99.90
10828;DHT22;5467;59.334;13.512;2022-08-01T03:08:12;15.00;99.90
10828;DHT22;5467;59.334;13.512;2022-08-01T03:10:41;15.00;99.90
10828;DHT22;5467;59.334;13.512;2022-08-01T03:13:10;14.90;99.90
10828;DHT22;5467;59.334;13.512;2022-08-01T03:15:40;14.90;99.90
10828;DHT22;5467;59.334;13.512;2022-08-01T03:18:09;14.80;99.90
10828;DHT22;5467;59.334;13.512;2022-08-01T03:20:37;14.80;99.90
10828;DHT22;5467;59.334;13.512;2022-08-01T03:23:08;14.80;99.90
10828;DHT22;5467;59.334;13.512;2022-08-01T03:25:38;14.90;99.90
10828;DHT22;5467;59.334;13.512;2022-08-01T03:28:08;15.00;99.90
10828;DHT22;5467;59.334;13.512;2022-08-01T03:30:37;15.00;99.90
10828;DHT22;5467;59.334;13.512;2022-08-01T03:33:06;15.00;99.90
10828;DHT22;5467;59.334;13.512;2022-08-01T03:35:35;15.00;99.90
10828;DHT22;5467;59.334;13.512;2022-08-01T03:38:06;14.90;99.90
10828;DHT22;5467;59.334;13.512;2022-08-01T03:40:38;14.80;99.90
10828;DHT22;5467;59.334;13.512;2022-08-01T03:43:10;14.90;99.90
10828;DHT22;5467;59.334;13.512;2022-08-01T03:45:40;14.90;99.90
10828;DHT22;5467;59.334;13.512;2022-08-01T03:48:11;15.00;99.90
10828;DHT22;5467;59.334;13.512;2022-08-01T03:50:42;15.20;99.90
10828;DHT22;5467;59.334;13.512;2022-08-01T03:53:12;15.20;99.90
10828;DHT22;5467;59.334;13.512;2022-08-01T03:55:41;15.20;99.90
10828;DHT22;5467;59.334;13.512;2022-08-01T03:58:10;15.20;99.90
10828;DHT22;5467;59.334;13.512;2022-08-01T04:00:39;15.30;99.90
10828;DHT22;5467;59.334;13.512;2022-08-01T04:03:09;15.40;99.90
10828;DHT22;5467;59.334;13.512;2022-08-01T04:05:36;15.40;99.90
10828;DHT22;5467;59.334;13.512;2022-08-01T04:08:04;15.50;99.90
10828;DHT22;5467;59.334;13.512;2022-08-01T04:10:32;15.50;99.90
10828;DHT22;5467;59.334;13.512;2022-08-01T04:12:59;15.50;99.90
10828;DHT22;5467;59.334;13.512;2022-08-01T04:15:27;15.50;99.90
10828;DHT22;5467;59.334;13.512;2022-08-01T04:17:54;15.60;99.90
10828;DHT22;5467;59.334;13.512;2022-08-01T04:20:21;15.70;99.90
10828;DHT22;5467;59.334;13.512;2022-08-01T04:22:48;15.70;99.90
10828;DHT22;5467;59.334;13.512;2022-08-01T04:25:19;15.80;99.90
10828;DHT22;5467;59.334;13.512;2022-08-01T04:27:50;15.80;99.90
10828;DHT22;5467;59.334;13.512;2022-08-01T04:30:20;15.80;99.90
10828;DHT22;5467;59.334;13.512;2022-08-01T04:32:51;15.80;99.90
10828;DHT22;5467;59.334;13.512;2022-08-01T04:35:20;15.90;99.90
10828;DHT22;5467;59.334;13.512;2022-08-01T04:37:48;15.90;99.90
10828;DHT22;5467;59.334;13.512;2022-08-01T04:40:17;15.80;99.90
10828;DHT22;5467;59.334;13.512;2022-08-01T04:42:45;15.80;99.90
10828;DHT22;5467;59.334;13.512;2022-08-01T04:45:16;15.80;99.90
10828;DHT22;5467;59.334;13.512;2022-08-01T04:47:43;15.90;99.90
10828;DHT22;5467;59.334;13.512;2022-08-01T04:50:11;15.90;99.90
10828;DHT22;5467;59.334;13.512;2022-08-01T04:52:39;15.90;99.90
10828;DHT22;5467;59.334;13.512;2022-08-01T04:55:08;15.90;99.90
10828;DHT22;5467;59.334;13.512;2022-08-01T04:57:38;15.80;99.90
10828;DHT22;5467;59.334;13.512;2022-08-01T05:00:07;15.90;99.90
10828;DHT22;5467;59.334;13.512;2022-08-01T05:02:37;15.90;99.90
10828;DHT22;5467;59.334;13.512;2022-08-01T05:05:05;15.90;99.90
10828;DHT22;5467;59.334;13.512;2022-08-01T05:07:32;15.80;99.90
10828;DHT22;5467;59.334;13.512;2022-08-01T05:10:01;15.80;99.90
10828;DHT22;5467;59.334;13.512;2022-08-01T05:12:28;15.90;99.90
10828;DHT22;5467;59.334;13.512;2022-08-01T05:14:57;15.90;99.90
10828;DHT22;5467;59.334;13.512;2022-08-01T05:17:24;15.90;99.90
10828;DHT22;5467;59.334;13.512;2022-08-01T05:19:52;15.90;99.90
10828;DHT22;5467;59.334;13.512;2022-08-01T05:22:19;15.90;99.90
10828;DHT22;5467;59.334;13.512;2022-08-01T05:24:47;16.00;99.90
10828;DHT22;5467;59.334;13.512;2022-08-01T05:27:14;16.10;99.90
10828;DHT22;5467;59.334;13.512;2022-08-01T05:29:41;15.90;99.90
10828;DHT22;5467;59.334;13.512;2022-08-01T05:32:09;15.90;99.90
10828;DHT22;5467;59.334;13.512;2022-08-01T05:34:36;16.00;99.90
10828;DHT22;5467;59.334;13.512;2022-08-01T05:37:04;16.10;99.90
10828;DHT22;5467;59.334;13.512;2022-08-01T05:39:32;16.20;99.90
10828;DHT22;5467;59.334;13.512;2022-08-01T05:41:59;16.20;99.90
10828;DHT22;5467;59.334;13.512;2022-08-01T05:44:26;16.20;99.90
10828;DHT22;5467;59.334;13.512;2022-08-01T05:46:53;16.30;99.90
10828;DHT22;5467;59.334;13.512;2022-08-01T05:49:20;16.30;99.90
10828;DHT22;5467;59.334;13.512;2022-08-01T05:51:47;16.40;99.90
10828;DHT22;5467;59.334;13.512;2022-08-01T05:54:16;16.50;99.90
10828;DHT22;5467;59.334;13.512;2022-08-01T05:56:43;16.40;99.90
10828;DHT22;5467;59.334;13.512;2022-08-01T05:59:10;16.50;99.90
10828;DHT22;5467;59.334;13.512;2022-08-01T06:01:37;16.60;99.90
10828;DHT22;5467;59.334;13.512;2022-08-01T06:04:04;16.60;99.90
10828;DHT22;5467;59.334;13.512;2022-08-01T06:06:31;16.60;99.90
10828;DHT22;5467;59.334;13.512;2022-08-01T06:08:58;16.70;99.90
10828;DHT22;5467;59.334;13.512;2022-08-01T06:11:26;16.70;99.90
10828;DHT22;5467;59.334;13.512;2022-08-01T06:13:53;16.80;99.90
10828;DHT22;5467;59.334;13.512;2022-08-01T06:16:20;16.70;99.90
10828;DHT22;5467;59.334;13.512;2022-08-01T06:18:48;16.80;99.90
10828;DHT22;5467;59.334;13.512;2022-08-01T06:21:15;16.80;99.90
10828;DHT22;5467;59.334;13.512;2022-08-01T06:23:42;16.80;99.90
10828;DHT22;5467;59.334;13.512;2022-08-01T06:26:09;16.80;99.90
10828;DHT22;5467;59.334;13.512;2022-08-01T06:28:38;16.80;99.90
10828;DHT22;5467;59.334;13.512;2022-08-01T06:31:05;17.00;99.90
10828;DHT22;5467;59.334;13.512;2022-08-01T06:33:32;16.80;99.90
10828;DHT22;5467;59.334;13.512;2022-08-01T06:36:00;16.80;99.90
10828;DHT22;5467;59.334;13.512;2022-08-01T06:38:27;16.90;99.90
10828;DHT22;5467;59.334;13.512;2022-08-01T06:40:54;16.90;99.90
10828;DHT22;5467;59.334;13.512;2022-08-01T06:43:21;16.90;99.90
10828;DHT22;5467;59.334;13.512;2022-08-01T06:45:49;17.00;99.90
10828;DHT22;5467;59.334;13.512;2022-08-01T06:48:16;17.10;99.90
10828;DHT22;5467;59.334;13.512;2022-08-01T06:50:43;17.00;99.90
10828;DHT22;5467;59.334;13.512;2022-08-01T06:53:10;17.00;99.90
10828;DHT22;5467;59.334;13.512;2022-08-01T06:55:37;17.10;99.90
10828;DHT22;5467;59.334;13.512;2022-08-01T06:58:04;17.10;99.90
10828;DHT22;5467;59.334;13.512;2022-08-01T07:00:31;17.10;99.90
10828;DHT22;5467;59.334;13.512;2022-08-01T07:03:00;17.20;99.90
10828;DHT22;5467;59.334;13.512;2022-08-01T07:05:27;17.30;99.90
10828;DHT22;5467;59.334;13.512;2022-08-01T07:07:56;17.30;99.90
10828;DHT22;5467;59.334;13.512;2022-08-01T07:10:23;17.30;99.90
10828;DHT22;5467;59.334;13.512;2022-08-01T07:12:50;17.40;99.90
10828;DHT22;5467;59.334;13.512;2022-08-01T07:15:17;17.30;99.90
10828;DHT22;5467;59.334;13.512;2022-08-01T07:17:47;17.40;99.90
10828;DHT22;5467;59.334;13.512;2022-08-01T07:20:15;17.40;99.90
10828;DHT22;5467;59.334;13.512;2022-08-01T07:22:43;17.50;99.90
10828;DHT22;5467;59.334;13.512;2022-08-01T07:25:10;17.70;99.90
10828;DHT22;5467;59.334;13.512;2022-08-01T07:27:37;17.70;99.90
10828;DHT22;5467;59.334;13.512;2022-08-01T07:30:05;17.60;99.90
10828;DHT22;5467;59.334;13.512;2022-08-01T07:32:33;17.80;99.90
10828;DHT22;5467;59.334;13.512;2022-08-01T07:35:00;17.90;99.90
10828;DHT22;5467;59.334;13.512;2022-08-01T07:37:29;17.90;99.90
10828;DHT22;5467;59.334;13.512;2022-08-01T07:39:56;17.90;99.90
10828;DHT22;5467;59.334;13.512;2022-08-01T07:42:23;18.00;99.90
10828;DHT22;5467;59.334;13.512;2022-08-01T07:44:50;18.00;99.90
10828;DHT22;5467;59.334;13.512;2022-08-01T07:47:23;18.00;99.90
10828;DHT22;5467;59.334;13.512;2022-08-01T07:49:51;18.20;99.90
10828;DHT22;5467;59.334;13.512;2022-08-01T07:52:18;18.40;99.90
10828;DHT22;5467;59.334;13.512;2022-08-01T07:54:46;18.70;99.90
10828;DHT22;5467;59.334;13.512;2022-08-01T07:57:13;18.70;99.90
10828;DHT22;5467;59.334;13.512;2022-08-01T07:59:40;18.90;99.90
10828;DHT22;5467;59.334;13.512;2022-08-01T08:02:08;18.70;99.90
10828;DHT22;5467;59.334;13.512;2022-08-01T08:04:35;18.50;99.90
10828;DHT22;5467;59.334;13.512;2022-08-01T08:07:02;18.40;99.90
10828;DHT22;5467;59.334;13.512;2022-08-01T08:09:29;18.40;99.90
10828;DHT22;5467;59.334;13.512;2022-08-01T08:11:57;18.20;99.90
10828;DHT22;5467;59.334;13.512;2022-08-01T08:14:24;18.10;99.90
10828;DHT22;5467;59.334;13.512;2022-08-01T08:16:51;18.50;99.90
10828;DHT22;5467;59.334;13.512;2022-08-01T08:19:18;19.00;99.90
10828;DHT22;5467;59.334;13.512;2022-08-01T08:21:45;19.20;99.90
10828;DHT22;5467;59.334;13.512;2022-08-01T08:24:12;19.40;99.90
10828;DHT22;5467;59.334;13.512;2022-08-01T08:26:51;19.60;99.90
10828;DHT22;5467;59.334;13.512;2022-08-01T08:29:22;20.00;99.90
10828;DHT22;5467;59.334;13.512;2022-08-01T08:31:49;20.20;99.90
10828;DHT22;5467;59.334;13.512;2022-08-01T08:34:16;20.30;99.90
10828;DHT22;5467;59.334;13.512;2022-08-01T08:36:43;20.20;99.90
10828;DHT22;5467;59.334;13.512;2022-08-01T08:39:10;20.40;99.90
10828;DHT22;5467;59.334;13.512;2022-08-01T08:41:37;20.30;99.90
10828;DHT22;5467;59.334;13.512;2022-08-01T08:44:06;20.30;99.90
10828;DHT22;5467;59.334;13.512;2022-08-01T08:46:40;20.50;99.90
10828;DHT22;5467;59.334;13.512;2022-08-01T08:49:08;20.60;99.90
10828;DHT22;5467;59.334;13.512;2022-08-01T08:51:38;20.80;99.90
10828;DHT22;5467;59.334;13.512;2022-08-01T08:54:06;20.60;99.90
10828;DHT22;5467;59.334;13.512;2022-08-01T08:56:34;20.60;99.90
10828;DHT22;5467;59.334;13.512;2022-08-01T08:59:02;20.60;99.90
10828;DHT22;5467;59.334;13.512;2022-08-01T09:01:31;20.70;99.90
10828;DHT22;5467;59.334;13.512;2022-08-01T09:04:02;21.00;99.90
10828;DHT22;5467;59.334;13.512;2022-08-01T09:06:30;21.00;99.90
10828;DHT22;5467;59.334;13.512;2022-08-01T09:08:57;21.00;99.90
10828;DHT22;5467;59.334;13.512;2022-08-01T09:11:25;20.70;99.90
10828;DHT22;5467;59.334;13.512;2022-08-01T09:14:06;20.60;99.90
10828;DHT22;5467;59.334;13.512;2022-08-01T09:16:35;20.80;99.90
10828;DHT22;5467;59.334;13.512;2022-08-01T09:19:15;20.80;99.90
10828;DHT22;5467;59.334;13.512;2022-08-01T09:21:57;21.20;99.90
10828;DHT22;5467;59.334;13.512;2022-08-01T09:24:25;21.30;99.90
10828;DHT22;5467;59.334;13.512;2022-08-01T09:26:53;21.50;99.90
10828;DHT22;5467;59.334;13.512;2022-08-01T09:29:23;21.50;99.90
10828;DHT22;5467;59.334;13.512;2022-08-01T09:31:50;21.70;99.90
10828;DHT22;5467;59.334;13.512;2022-08-01T09:34:24;21.80;99.90
10828;DHT22;5467;59.334;13.512;2022-08-01T09:36:53;21.90;99.90
10828;DHT22;5467;59.334;13.512;2022-08-01T09:39:23;22.00;99.90
10828;DHT22;5467;59.334;13.512;2022-08-01T09:41:50;21.50;99.90
10828;DHT22;5467;59.334;13.512;2022-08-01T09:44:18;21.50;99.90
10828;DHT22;5467;59.334;13.512;2022-08-01T09:46:52;21.60;99.90
10828;DHT22;5467;59.334;13.512;2022-08-01T09:49:31;21.50;99.90
10828;DHT22;5467;59.334;13.512;2022-08-01T09:52:09;21.20;99.90
10828;DHT22;5467;59.334;13.512;2022-08-01T09:54:37;21.10;99.90
10828;DHT22;5467;59.334;13.512;2022-08-01T09:57:12;21.20;99.90
10828;DHT22;5467;59.334;13.512;2022-08-01T09:59:41;21.40;99.90
10828;DHT22;5467;59.334;13.512;2022-08-01T10:02:10;21.20;99.90
10828;DHT22;5467;59.334;13.512;2022-08-01T10:04:47;20.90;99.90
10828;DHT22;5467;59.334;13.512;2022-08-01T10:07:15;21.00;99.90
10828;DHT22;5467;59.334;13.512;2022-08-01T10:09:43;20.90;99.90
10828;DHT22;5467;59.334;13.512;2022-08-01T10:12:11;21.10;99.90
10828;DHT22;5467;59.334;13.512;2022-08-01T10:14:39;21.50;99.90
10828;DHT22;5467;59.334;13.512;2022-08-01T10:17:09;21.80;99.90
10828;DHT22;5467;59.334;13.512;2022-08-01T10:19:40;22.00;99.90
10828;DHT22;5467;59.334;13.512;2022-08-01T10:22:11;21.80;99.90
10828;DHT22;5467;59.334;13.512;2022-08-01T10:24:40;21.90;99.90
10828;DHT22;5467;59.334;13.512;2022-08-01T10:27:08;22.10;99.90
10828;DHT22;5467;59.334;13.512;2022-08-01T10:29:39;22.20;99.90
10828;DHT22;5467;59.334;13.512;2022-08-01T10:32:07;22.00;99.90
10828;DHT22;5467;59.334;13.512;2022-08-01T10:34:36;22.10;99.90
10828;DHT22;5467;59.334;13.512;2022-08-01T10:37:04;22.20;99.90
10828;DHT22;5467;59.334;13.512;2022-08-01T10:39:33;22.30;99.90
10828;DHT22;5467;59.334;13.512;2022-08-01T10:42:01;22.00;99.90
10828;DHT22;5467;59.334;13.512;2022-08-01T10:44:30;22.20;99.90
10828;DHT22;5467;59.334;13.512;2022-08-01T10:47:02;22.40;99.90
10828;DHT22;5467;59.334;13.512;2022-08-01T10:49:33;22.40;99.90
10828;DHT22;5467;59.334;13.512;2022-08-01T10:52:02;22.20;99.90
10828;DHT22;5467;59.334;13.512;2022-08-01T10:54:29;22.20;99.90
10828;DHT22;5467;59.334;13.512;2022-08-01T10:57:06;22.40;99.90
10828;DHT22;5467;59.334;13.512;2022-08-01T10:59:33;22.60;99.90
10828;DHT22;5467;59.334;13.512;2022-08-01T11:02:02;22.90;99.90
10828;DHT22;5467;59.334;13.512;2022-08-01T11:04:35;23.00;99.90
10828;DHT22;5467;59.334;13.512;2022-08-01T11:07:07;23.20;99.90
10828;DHT22;5467;59.334;13.512;2022-08-01T11:09:39;22.90;99.90
10828;DHT22;5467;59.334;13.512;2022-08-01T11:12:11;22.40;99.90
10828;DHT22;5467;59.334;13.512;2022-08-01T11:17:50;22.70;99.90
10828;DHT22;5467;59.334;13.512;2022-08-01T11:20:19;22.50;99.90
10828;DHT22;5467;59.334;13.512;2022-08-01T11:23:14;22.30;99.90
10828;DHT22;5467;59.334;13.512;2022-08-01T11:29:16;22.40;99.90
10828;DHT22;5467;59.334;13.512;2022-08-01T11:31:43;22.30;99.90
10828;DHT22;5467;59.334;13.512;2022-08-01T11:34:10;22.50;99.90
10828;DHT22;5467;59.334;13.512;2022-08-01T11:36:37;22.60;99.90
10828;DHT22;5467;59.334;13.512;2022-08-01T11:39:15;22.50;99.90
10828;DHT22;5467;59.334;13.512;2022-08-01T11:41:43;22.50;99.90
10828;DHT22;5467;59.334;13.512;2022-08-01T11:44:13;22.40;99.90
10828;DHT22;5467;59.334;13.512;2022-08-01T11:46:50;22.50;99.90
10828;DHT22;5467;59.334;13.512;2022-08-01T11:49:33;22.70;99.90
10828;DHT22;5467;59.334;13.512;2022-08-01T11:52:04;22.70;99.90
10828;DHT22;5467;59.334;13.512;2022-08-01T11:54:34;22.60;99.90
10828;DHT22;5467;59.334;13.512;2022-08-01T11:57:03;22.60;99.90
10828;DHT22;5467;59.334;13.512;2022-08-01T11:59:37;22.70;99.90
10828;DHT22;5467;59.334;13.512;2022-08-01T12:02:18;22.80;99.90
10828;DHT22;5467;59.334;13.512;2022-08-01T12:04:47;22.80;99.90
10828;DHT22;5467;59.334;13.512;2022-08-01T12:07:14;22.70;99.90
10828;DHT22;5467;59.334;13.512;2022-08-01T12:09:41;22.60;99.90
10828;DHT22;5467;59.334;13.512;2022-08-01T12:12:09;22.80;99.90
10828;DHT22;5467;59.334;13.512;2022-08-01T12:14:36;22.80;99.90
10828;DHT22;5467;59.334;13.512;2022-08-01T12:17:05;22.60;99.90
10828;DHT22;5467;59.334;13.512;2022-08-01T12:19:32;22.60;99.90
10828;DHT22;5467;59.334;13.512;2022-08-01T12:22:06;22.50;99.90
10828;DHT22;5467;59.334;13.512;2022-08-01T12:24:34;22.70;99.90
10828;DHT22;5467;59.334;13.512;2022-08-01T12:27:01;22.60;99.90
10828;DHT22;5467;59.334;13.512;2022-08-01T12:29:33;22.90;99.90
10828;DHT22;5467;59.334;13.512;2022-08-01T12:32:00;22.90;99.90
10828;DHT22;5467;59.334;13.512;2022-08-01T12:34:29;22.50;99.90
10828;DHT22;5467;59.334;13.512;2022-08-01T12:37:00;22.50;99.90
10828;DHT22;5467;59.334;13.512;2022-08-01T12:39:34;22.60;99.90
10828;DHT22;5467;59.334;13.512;2022-08-01T12:42:01;22.70;99.90
10828;DHT22;5467;59.334;13.512;2022-08-01T12:44:32;22.80;99.90
10828;DHT22;5467;59.334;13.512;2022-08-01T12:47:00;22.70;99.90
10828;DHT22;5467;59.334;13.512;2022-08-01T12:49:29;22.60;99.90
10828;DHT22;5467;59.334;13.512;2022-08-01T12:51:57;22.40;99.90
10828;DHT22;5467;59.334;13.512;2022-08-01T12:54:24;22.40;99.90
10828;DHT22;5467;59.334;13.512;2022-08-01T12:56:51;22.40;99.90
10828;DHT22;5467;59.334;13.512;2022-08-01T12:59:20;22.40;99.90
10828;DHT22;5467;59.334;13.512;2022-08-01T13:01:49;22.50;99.90
10828;DHT22;5467;59.334;13.512;2022-08-01T13:04:16;22.40;99.90
10828;DHT22;5467;59.334;13.512;2022-08-01T13:06:45;22.50;99.90
10828;DHT22;5467;59.334;13.512;2022-08-01T13:09:11;22.50;99.90
10828;DHT22;5467;59.334;13.512;2022-08-01T13:11:39;22.40;99.90
10828;DHT22;5467;59.334;13.512;2022-08-01T13:14:07;22.60;99.90
10828;DHT22;5467;59.334;13.512;2022-08-01T13:16:46;22.90;99.90
10828;DHT22;5467;59.334;13.512;2022-08-01T13:19:13;22.90;99.90
10828;DHT22;5467;59.334;13.512;2022-08-01T13:21:55;22.90;99.90
10828;DHT22;5467;59.334;13.512;2022-08-01T13:24:26;22.50;99.90
10828;DHT22;5467;59.334;13.512;2022-08-01T13:26:55;22.50;99.90
10828;DHT22;5467;59.334;13.512;2022-08-01T13:29:30;22.70;99.90
10828;DHT22;5467;59.334;13.512;2022-08-01T13:31:58;22.70;99.90
10828;DHT22;5467;59.334;13.512;2022-08-01T13:34:32;22.70;99.90
10828;DHT22;5467;59.334;13.512;2022-08-01T13:37:01;22.70;99.90
10828;DHT22;5467;59.334;13.512;2022-08-01T13:39:28;22.60;99.90
10828;DHT22;5467;59.334;13.512;2022-08-01T13:42:08;22.20;99.90
10828;DHT22;5467;59.334;13.512;2022-08-01T13:44:35;22.10;99.90
10828;DHT22;5467;59.334;13.512;2022-08-01T13:47:03;22.00;99.90
10828;DHT22;5467;59.334;13.512;2022-08-01T13:49:30;22.20;99.90
10828;DHT22;5467;59.334;13.512;2022-08-01T13:51:57;22.50;99.90
10828;DHT22;5467;59.334;13.512;2022-08-01T13:54:25;22.40;99.90
10828;DHT22;5467;59.334;13.512;2022-08-01T13:56:53;22.40;99.90
10828;DHT22;5467;59.334;13.512;2022-08-01T13:59:21;22.60;99.90
10828;DHT22;5467;59.334;13.512;2022-08-01T14:01:48;22.80;99.90
10828;DHT22;5467;59.334;13.512;2022-08-01T14:04:15;22.80;99.90
10828;DHT22;5467;59.334;13.512;2022-08-01T14:06:42;23.00;99.90
10828;DHT22;5467;59.334;13.512;2022-08-01T14:09:09;22.90;99.90
10828;DHT22;5467;59.334;13.512;2022-08-01T14:11:38;22.80;99.90
10828;DHT22;5467;59.334;13.512;2022-08-01T14:14:05;22.90;99.90
10828;DHT22;5467;59.334;13.512;2022-08-01T14:16:32;22.70;99.90
10828;DHT22;5467;59.334;13.512;2022-08-01T14:18:59;22.70;99.90
10828;DHT22;5467;59.334;13.512;2022-08-01T14:21:26;22.60;99.90
10828;DHT22;5467;59.334;13.512;2022-08-01T14:23:53;22.60;99.90
10828;DHT22;5467;59.334;13.512;2022-08-01T14:26:20;22.70;99.90
10828;DHT22;5467;59.334;13.512;2022-08-01T14:28:49;22.60;99.90
10828;DHT22;5467;59.334;13.512;2022-08-01T14:31:16;22.60;99.90
10828;DHT22;5467;59.334;13.512;2022-08-01T14:33:43;22.70;99.90
10828;DHT22;5467;59.334;13.512;2022-08-01T14:36:10;22.50;99.90
10828;DHT22;5467;59.334;13.512;2022-08-01T14:38:37;22.50;99.90
10828;DHT22;5467;59.334;13.512;2022-08-01T14:41:04;22.60;99.90
10828;DHT22;5467;59.334;13.512;2022-08-01T14:43:31;22.50;99.90
10828;DHT22;5467;59.334;13.512;2022-08-01T14:46:00;22.50;99.90
10828;DHT22;5467;59.334;13.512;2022-08-01T14:48:29;22.50;99.90
10828;DHT22;5467;59.334;13.512;2022-08-01T14:50:56;22.60;99.90
10828;DHT22;5467;59.334;13.512;2022-08-01T14:53:23;22.70;99.90
10828;DHT22;5467;59.334;13.512;2022-08-01T14:55:50;22.70;99.90
10828;DHT22;5467;59.334;13.512;2022-08-01T14:58:17;22.60;99.90
10828;DHT22;5467;59.334;13.512;2022-08-01T15:00:44;22.50;99.90
10828;DHT22;5467;59.334;13.512;2022-08-01T15:03:12;22.30;99.90
10828;DHT22;5467;59.334;13.512;2022-08-01T15:05:39;22.20;99.90
10828;DHT22;5467;59.334;13.512;2022-08-01T15:08:06;22.20;99.90
10828;DHT22;5467;59.334;13.512;2022-08-01T15:10:33;22.30;99.90
10828;DHT22;5467;59.334;13.512;2022-08-01T15:13:00;22.30;99.90
10828;DHT22;5467;59.334;13.512;2022-08-01T15:15:28;22.40;99.90
10828;DHT22;5467;59.334;13.512;2022-08-01T15:17:55;22.30;99.90
10828;DHT22;5467;59.334;13.512;2022-08-01T15:20:23;22.30;99.90
10828;DHT22;5467;59.334;13.512;2022-08-01T15:22:52;22.30;99.90
10828;DHT22;5467;59.334;13.512;2022-08-01T15:25:19;22.20;99.90
10828;DHT22;5467;59.334;13.512;2022-08-01T15:27:46;22.30;99.90
10828;DHT22;5467;59.334;13.512;2022-08-01T15:30:14;22.30;99.90
10828;DHT22;5467;59.334;13.512;2022-08-01T15:32:41;22.20;99.90
10828;DHT22;5467;59.334;13.512;2022-08-01T15:35:09;22.20;99.90
10828;DHT22;5467;59.334;13.512;2022-08-01T15:37:38;22.00;99.90
10828;DHT22;5467;59.334;13.512;2022-08-01T15:40:05;21.90;99.90
10828;DHT22;5467;59.334;13.512;2022-08-01T15:42:32;21.90;99.90
10828;DHT22;5467;59.334;13.512;2022-08-01T15:45:00;21.90;99.90
10828;DHT22;5467;59.334;13.512;2022-08-01T15:47:27;21.80;99.90
10828;DHT22;5467;59.334;13.512;2022-08-01T15:49:54;21.80;99.90